createdAt,value
2023-03-29T00:01:45.974Z,1.45
2023-03-29T00:04:13.944Z,1.75
2023-03-29T00:06:41.987Z,1.58
2023-03-29T00:09:09.941Z,1.55
2023-03-29T00:11:36.519Z,1.27
2023-03-29T00:14:03.226Z,1.23
2023-03-29T00:16:29.775Z,1.42
2023-03-29T00:18:56.535Z,1.70
2023-03-29T00:21:23.021Z,1.10
2023-03-29T00:23:49.462Z,1.40
2023-03-29T00:26:16.001Z,1.40
2023-03-29T00:28:42.453Z,1.25
2023-03-29T00:31:12.634Z,1.42
2023-03-29T00:33:40.245Z,1.23
2023-03-29T00:36:08.581Z,1.50
2023-03-29T00:38:35.322Z,1.52
2023-03-29T00:41:02.757Z,1.30
2023-03-29T00:43:29.855Z,1.20
2023-03-29T00:45:56.363Z,1.20
2023-03-29T00:48:29.871Z,1.10
2023-03-29T00:51:09.779Z,1.30
2023-03-29T00:53:42.349Z,1.00
2023-03-29T00:56:16.755Z,1.00
2023-03-29T00:59:04.846Z,1.33
2023-03-29T01:01:54.989Z,0.95
2023-03-29T01:04:29.330Z,0.80
2023-03-29T01:07:06.415Z,0.80
2023-03-29T01:09:37.384Z,0.88
2023-03-29T01:12:11.411Z,0.80
2023-03-29T01:14:44.840Z,0.93
2023-03-29T01:17:12.797Z,0.90
2023-03-29T01:19:45.324Z,0.70
2023-03-29T01:22:38.863Z,0.60
2023-03-29T01:25:17.595Z,1.00
2023-03-29T01:27:57.706Z,0.73
2023-03-29T01:30:30.461Z,1.02
2023-03-29T01:33:24.841Z,0.82
2023-03-29T01:35:59.920Z,1.00
2023-03-29T01:38:35.726Z,0.68
2023-03-29T01:41:03.571Z,0.80
2023-03-29T01:43:48.642Z,0.93
2023-03-29T01:46:20.725Z,0.70
2023-03-29T01:48:57.515Z,1.10
2023-03-29T01:51:31.083Z,0.73
2023-03-29T01:54:06.029Z,0.60
2023-03-29T01:56:36.871Z,0.70
2023-03-29T01:59:08.307Z,0.68
2023-03-29T02:01:40.662Z,0.65
2023-03-29T02:04:13.433Z,0.98
2023-03-29T02:06:41.584Z,0.70
2023-03-29T02:09:08.432Z,0.93
2023-03-29T02:11:36.137Z,0.68
2023-03-29T02:14:02.758Z,0.63
2023-03-29T02:16:37.101Z,0.80
2023-03-29T02:19:03.994Z,0.68
2023-03-29T02:22:03.932Z,0.55
2023-03-29T02:24:32.750Z,0.88
2023-03-29T02:26:59.726Z,1.20
2023-03-29T02:29:26.322Z,1.60
2023-03-29T02:32:06.285Z,1.70
2023-03-29T02:34:38.904Z,1.77
2023-03-29T02:37:17.501Z,1.60
2023-03-29T02:39:48.518Z,2.17
2023-03-29T02:42:17.591Z,1.70
2023-03-29T02:44:45.440Z,1.65
2023-03-29T02:47:24.441Z,1.98
2023-03-29T02:49:50.967Z,2.00
2023-03-29T02:52:23.972Z,1.95
2023-03-29T02:54:54.438Z,2.13
2023-03-29T02:57:26.579Z,2.15
2023-03-29T02:59:56.929Z,2.08
2023-03-29T03:02:25.969Z,1.92
2023-03-29T03:04:54.015Z,2.10
2023-03-29T03:07:20.961Z,2.40
2023-03-29T03:09:47.798Z,1.88
2023-03-29T03:12:14.497Z,2.25
2023-03-29T03:14:40.940Z,2.13
2023-03-29T03:17:07.394Z,2.25
2023-03-29T03:19:33.892Z,2.40
2023-03-29T03:22:00.436Z,2.08
2023-03-29T03:24:28.101Z,1.80
2023-03-29T03:26:55.378Z,1.67
2023-03-29T03:29:21.920Z,1.60
2023-03-29T03:32:00.860Z,1.10
2023-03-29T03:34:42.412Z,1.10
2023-03-29T03:37:11.887Z,1.05
2023-03-29T03:39:39.124Z,1.00
2023-03-29T03:42:08.574Z,1.00
2023-03-29T03:44:39.566Z,1.00
2023-03-29T03:47:32.249Z,1.02
2023-03-29T03:50:18.461Z,1.00
2023-03-29T03:52:45.071Z,1.10
2023-03-29T03:55:12.234Z,1.23
2023-03-29T03:57:47.859Z,1.33
2023-03-29T04:00:20.285Z,0.85
2023-03-29T04:03:06.072Z,1.58
2023-03-29T04:05:33.921Z,1.08
2023-03-29T04:08:00.788Z,1.13
2023-03-29T04:10:53.968Z,1.05
2023-03-29T04:13:26.494Z,1.02
2023-03-29T04:16:13.348Z,1.33
2023-03-29T04:18:40.373Z,1.10
2023-03-29T04:21:07.282Z,1.08
2023-03-29T04:23:36.029Z,1.02
2023-03-29T04:26:02.565Z,1.25
2023-03-29T04:28:50.045Z,1.00
2023-03-29T04:31:39.426Z,1.50
2023-03-29T04:34:25.332Z,1.10
2023-03-29T04:36:54.220Z,1.30
2023-03-29T04:39:33.879Z,2.05
2023-03-29T04:42:03.872Z,1.85
2023-03-29T04:44:34.941Z,1.67
2023-03-29T04:47:04.794Z,4.18
2023-03-29T04:49:49.654Z,2.67
2023-03-29T04:52:32.935Z,2.78
2023-03-29T04:55:01.555Z,1.73
2023-03-29T04:57:57.434Z,1.80
2023-03-29T05:00:31.529Z,2.03
2023-03-29T05:03:14.553Z,2.08
2023-03-29T05:06:06.824Z,2.00
2023-03-29T05:08:38.840Z,1.95
2023-03-29T05:11:29.193Z,1.92
2023-03-29T05:13:57.202Z,1.92
2023-03-29T05:16:26.428Z,1.90
2023-03-29T05:18:58.744Z,1.80
2023-03-29T05:21:31.219Z,2.25
2023-03-29T05:24:02.710Z,3.83
2023-03-29T05:26:47.914Z,2.90
2023-03-29T05:29:14.385Z,3.72
2023-03-29T05:31:43.789Z,3.78
2023-03-29T05:34:10.831Z,3.47
2023-03-29T05:36:45.287Z,4.13
2023-03-29T05:39:12.438Z,3.85
2023-03-29T05:41:39.774Z,3.20
2023-03-29T05:44:24.876Z,2.47
2023-03-29T05:46:57.403Z,2.53
2023-03-29T05:49:24.078Z,2.55
2023-03-29T05:52:13.106Z,2.03
2023-03-29T05:54:40.219Z,2.17
2023-03-29T05:57:07.110Z,2.03
2023-03-29T05:59:33.806Z,2.67
2023-03-29T06:02:03.055Z,2.25
2023-03-29T06:04:30.761Z,2.30
2023-03-29T06:07:16.372Z,2.08
2023-03-29T06:09:47.548Z,2.30
2023-03-29T06:12:16.078Z,2.58
2023-03-29T06:14:49.445Z,5.55
2023-03-29T06:17:22.338Z,4.95
2023-03-29T06:19:48.914Z,2.90
2023-03-29T06:22:17.289Z,2.30
2023-03-29T06:24:43.933Z,2.35
2023-03-29T06:27:21.800Z,2.35
2023-03-29T06:29:48.449Z,2.10
2023-03-29T06:32:15.035Z,2.30
2023-03-29T06:34:47.086Z,2.00
2023-03-29T06:37:23.732Z,2.20
2023-03-29T06:40:00.952Z,2.15
2023-03-29T06:42:34.374Z,2.30
2023-03-29T06:45:25.771Z,2.28
2023-03-29T06:47:54.696Z,1.90
2023-03-29T06:50:23.242Z,1.98
2023-03-29T06:53:04.394Z,1.85
2023-03-29T06:55:31.642Z,1.60
2023-03-29T06:58:08.196Z,1.85
2023-03-29T07:00:37.885Z,1.67
2023-03-29T07:03:20.248Z,2.28
2023-03-29T07:05:51.889Z,1.80
2023-03-29T07:08:21.448Z,2.10
2023-03-29T07:10:59.276Z,1.63
2023-03-29T07:13:46.199Z,1.58
2023-03-29T07:16:17.412Z,1.60
2023-03-29T07:19:03.708Z,1.85
2023-03-29T07:21:48.667Z,1.90
2023-03-29T07:24:15.664Z,1.70
2023-03-29T07:26:52.202Z,1.10
2023-03-29T07:29:22.840Z,1.40
2023-03-29T07:31:50.569Z,1.00
2023-03-29T07:34:42.895Z,1.10
2023-03-29T07:37:17.174Z,1.20
2023-03-29T07:39:45.342Z,0.80
2023-03-29T07:42:30.263Z,1.10
2023-03-29T07:44:58.486Z,1.10
2023-03-29T07:47:30.938Z,1.13
2023-03-29T07:49:59.037Z,1.30
2023-03-29T07:52:28.006Z,1.27
2023-03-29T07:54:55.616Z,1.50
2023-03-29T07:57:27.442Z,1.45
2023-03-29T07:59:56.256Z,1.20
2023-03-29T08:02:29.680Z,1.17
2023-03-29T08:05:01.604Z,1.08
2023-03-29T08:08:00.889Z,1.50
2023-03-29T08:10:42.606Z,1.10
2023-03-29T08:13:14.675Z,1.70
2023-03-29T08:15:50.195Z,1.20
2023-03-29T08:18:34.244Z,1.40
2023-03-29T08:21:02.212Z,1.20
2023-03-29T08:23:28.846Z,1.40
2023-03-29T08:26:04.989Z,1.08
2023-03-29T08:28:32.162Z,1.30
2023-03-29T08:31:00.140Z,1.63
2023-03-29T08:33:27.123Z,0.95
2023-03-29T08:36:16.662Z,1.05
2023-03-29T08:38:43.361Z,1.40
2023-03-29T08:41:29.701Z,1.00
2023-03-29T08:44:10.707Z,1.33
2023-03-29T08:47:03.972Z,1.50
2023-03-29T08:49:43.922Z,1.00
2023-03-29T08:52:23.845Z,1.08
2023-03-29T08:54:55.961Z,1.15
2023-03-29T08:57:47.875Z,1.10
2023-03-29T09:00:45.985Z,1.20
2023-03-29T09:03:59.622Z,1.08
2023-03-29T09:06:40.578Z,1.00
2023-03-29T09:09:22.619Z,1.13
2023-03-29T09:12:12.810Z,1.10
2023-03-29T09:14:57.270Z,1.08
2023-03-29T09:17:52.987Z,1.20
2023-03-29T09:20:24.189Z,1.20
2023-03-29T09:23:25.741Z,1.00
2023-03-29T09:26:47.550Z,1.10
2023-03-29T09:29:25.314Z,1.08
2023-03-29T09:31:53.297Z,1.13
2023-03-29T09:34:24.061Z,1.50
2023-03-29T09:37:08.254Z,1.35
2023-03-29T09:39:37.931Z,1.73
2023-03-29T09:42:11.993Z,1.10
2023-03-29T09:44:44.978Z,1.27
2023-03-29T09:47:25.039Z,1.00
2023-03-29T09:49:58.690Z,0.90
2023-03-29T09:52:25.447Z,1.38
2023-03-29T09:55:04.006Z,1.20
2023-03-29T09:57:50.156Z,1.30
2023-03-29T10:00:19.085Z,1.13
2023-03-29T10:02:57.775Z,1.10
2023-03-29T10:05:39.983Z,0.70
2023-03-29T10:08:20.020Z,1.13
2023-03-29T10:10:47.277Z,1.10
2023-03-29T10:13:20.664Z,0.90
2023-03-29T10:15:58.128Z,1.38
2023-03-29T10:18:25.241Z,1.00
2023-03-29T10:20:58.808Z,0.93
2023-03-29T10:23:34.051Z,0.90
2023-03-29T10:26:04.271Z,0.93
2023-03-29T10:28:32.024Z,0.80
2023-03-29T10:31:01.548Z,1.10
2023-03-29T10:33:31.705Z,1.10
2023-03-29T10:35:59.161Z,0.90
2023-03-29T10:38:29.659Z,1.00
2023-03-29T10:41:05.723Z,1.00
2023-03-29T10:46:31.815Z,0.90
2023-03-29T10:49:02.514Z,1.02
2023-03-29T10:51:32.310Z,0.90
2023-03-29T10:53:59.831Z,0.90
2023-03-29T10:56:32.310Z,0.75
2023-03-29T10:59:40.947Z,0.90
2023-03-29T11:02:13.565Z,0.90
2023-03-29T11:05:00.142Z,0.80
2023-03-29T11:10:38.470Z,1.30
2023-03-29T11:13:16.850Z,0.90
2023-03-29T11:16:01.719Z,1.40
2023-03-29T11:18:48.555Z,1.60
2023-03-29T11:21:24.883Z,0.80
2023-03-29T11:24:25.622Z,1.08
2023-03-29T11:27:51.041Z,1.40
2023-03-29T11:30:45.943Z,0.80
2023-03-29T11:33:37.478Z,1.20
2023-03-29T11:36:25.901Z,0.98
2023-03-29T11:39:11.359Z,0.90
2023-03-29T11:41:45.176Z,1.05
2023-03-29T11:44:26.994Z,0.90
2023-03-29T11:47:02.271Z,0.70
2023-03-29T11:49:37.310Z,0.93
2023-03-29T11:52:10.354Z,0.75
2023-03-29T11:54:52.246Z,1.00
2023-03-29T11:57:30.922Z,1.33
2023-03-29T12:00:32.978Z,0.70
2023-03-29T12:03:34.362Z,0.88
2023-03-29T12:06:13.977Z,1.10
2023-03-29T12:08:47.045Z,1.00
2023-03-29T12:11:31.172Z,0.90
2023-03-29T12:14:11.775Z,0.88
2023-03-29T12:16:49.318Z,0.88
2023-03-29T12:19:25.760Z,1.00
2023-03-29T12:21:54.578Z,0.90
2023-03-29T12:24:21.656Z,1.10
2023-03-29T12:27:27.095Z,1.00
2023-03-29T12:30:33.190Z,0.93
2023-03-29T12:33:31.759Z,1.20
2023-03-29T12:36:48.198Z,1.10
2023-03-29T12:39:33.589Z,1.20
2023-03-29T12:42:25.834Z,1.10
2023-03-29T12:45:19.209Z,1.23
2023-03-29T12:47:47.269Z,0.90
2023-03-29T12:50:28.470Z,0.90
2023-03-29T12:53:13.384Z,0.80
2023-03-29T12:55:55.846Z,1.08
2023-03-29T12:58:38.466Z,0.82
2023-03-29T13:01:27.348Z,1.10
2023-03-29T13:03:59.984Z,1.27
2023-03-29T13:06:31.109Z,1.15
2023-03-29T13:09:00.636Z,1.40
2023-03-29T13:11:33.789Z,1.42
2023-03-29T13:14:14.495Z,1.23
2023-03-29T13:16:41.665Z,1.23
2023-03-29T13:19:27.236Z,1.10
2023-03-29T13:21:56.698Z,1.77
2023-03-29T13:24:40.944Z,1.40
2023-03-29T13:27:39.612Z,1.35
2023-03-29T13:30:12.840Z,1.23
2023-03-29T13:33:05.169Z,0.90
2023-03-29T13:35:50.482Z,1.20
2023-03-29T13:38:23.616Z,1.10
2023-03-29T13:40:53.026Z,1.20
2023-03-29T13:43:19.457Z,1.00
2023-03-29T13:45:56.834Z,1.55
2023-03-29T13:48:27.158Z,1.33
2023-03-29T13:51:00.903Z,0.85
2023-03-29T13:53:37.274Z,1.05
2023-03-29T13:56:07.856Z,1.05
2023-03-29T13:58:46.509Z,1.10
2023-03-29T14:01:40.261Z,1.10
2023-03-29T14:04:13.455Z,1.25
2023-03-29T14:06:43.052Z,0.80
2023-03-29T14:09:14.348Z,1.10
2023-03-29T14:11:45.236Z,1.33
2023-03-29T14:14:12.142Z,0.95
2023-03-29T14:16:40.645Z,0.77
2023-03-29T14:19:21.968Z,0.80
2023-03-29T14:21:50.335Z,1.00
2023-03-29T14:24:21.454Z,1.67
2023-03-29T14:26:47.955Z,1.23
2023-03-29T14:29:14.811Z,0.98
2023-03-29T14:31:42.420Z,0.80
2023-03-29T14:34:19.218Z,0.90
2023-03-29T14:36:48.774Z,1.15
2023-03-29T14:39:19.138Z,1.33
2023-03-29T14:41:51.859Z,1.02
2023-03-29T14:44:21.783Z,1.30
2023-03-29T14:46:48.425Z,1.00
2023-03-29T14:49:17.422Z,0.93
2023-03-29T14:51:45.873Z,1.10
2023-03-29T14:54:31.767Z,1.08
2023-03-29T14:56:59.510Z,1.13
2023-03-29T14:59:37.250Z,1.00
2023-03-29T15:02:21.634Z,1.15
2023-03-29T15:04:55.526Z,1.30
2023-03-29T15:07:28.318Z,1.15
2023-03-29T15:09:57.156Z,1.40
2023-03-29T15:12:24.316Z,0.98
2023-03-29T15:14:52.819Z,1.60
2023-03-29T15:17:50.389Z,1.02
2023-03-29T15:20:26.067Z,1.60
2023-03-29T15:22:56.589Z,1.00
2023-03-29T15:25:25.978Z,0.90
2023-03-29T15:27:58.967Z,1.30
2023-03-29T15:30:39.395Z,1.10
2023-03-29T15:33:14.496Z,1.20
2023-03-29T15:35:41.722Z,1.20
2023-03-29T15:38:12.232Z,1.02
2023-03-29T15:40:38.848Z,0.95
2023-03-29T15:43:05.952Z,1.00
2023-03-29T15:45:32.490Z,1.25
2023-03-29T15:48:01.963Z,1.40
2023-03-29T15:50:28.680Z,1.63
2023-03-29T15:53:08.636Z,1.05
2023-03-29T15:55:44.612Z,0.90
2023-03-29T15:58:16.680Z,1.00
2023-03-29T16:00:48.603Z,1.20
2023-03-29T16:03:16.119Z,1.02
2023-03-29T16:05:43.392Z,1.20
2023-03-29T16:08:13.652Z,1.30
2023-03-29T16:10:41.866Z,1.10
2023-03-29T16:13:13.278Z,1.63
2023-03-29T16:15:42.212Z,1.20
2023-03-29T16:18:09.448Z,1.20
2023-03-29T16:20:36.056Z,1.30
2023-03-29T16:23:08.642Z,1.00
2023-03-29T16:25:39.915Z,1.20
2023-03-29T16:28:08.438Z,1.17
2023-03-29T16:30:36.539Z,1.00
2023-03-29T16:33:06.342Z,1.58
2023-03-29T16:35:35.634Z,0.80
2023-03-29T16:38:02.120Z,1.08
2023-03-29T16:40:28.649Z,1.27
2023-03-29T16:42:55.238Z,1.75
2023-03-29T16:45:21.767Z,0.98
2023-03-29T16:47:48.256Z,0.98
2023-03-29T16:50:18.024Z,0.90
2023-03-29T16:52:45.900Z,1.23
2023-03-29T16:55:13.068Z,1.08
2023-03-29T16:57:40.156Z,0.90
2023-03-29T17:00:11.316Z,1.05
2023-03-29T17:02:38.043Z,1.13
2023-03-29T17:05:06.023Z,1.20
2023-03-29T17:07:33.446Z,1.35
2023-03-29T17:10:00.160Z,1.35
2023-03-29T17:12:26.896Z,1.23
2023-03-29T17:14:53.300Z,1.05
2023-03-29T17:17:19.736Z,1.48
2023-03-29T17:19:46.284Z,1.20
2023-03-29T17:22:12.877Z,1.48
2023-03-29T17:24:39.323Z,1.20
2023-03-29T17:27:05.865Z,1.05
2023-03-29T17:29:32.322Z,1.23
2023-03-29T17:31:58.822Z,1.30
2023-03-29T17:34:27.013Z,1.15
2023-03-29T17:36:53.997Z,1.48
2023-03-29T17:39:20.470Z,1.48
2023-03-29T17:41:47.625Z,1.05
2023-03-29T17:44:14.178Z,1.92
2023-03-29T17:46:40.754Z,1.40
2023-03-29T17:49:07.256Z,1.08
2023-03-29T17:51:33.680Z,1.10
2023-03-29T17:54:00.190Z,0.93
2023-03-29T17:56:26.705Z,2.30
2023-03-29T17:58:53.519Z,1.27
2023-03-29T18:01:20.312Z,1.52
2023-03-29T18:03:48.192Z,1.40
2023-03-29T18:06:18.023Z,1.40
2023-03-29T18:08:44.675Z,1.98
2023-03-29T18:11:15.963Z,1.20
2023-03-29T18:13:44.337Z,1.70
2023-03-29T18:16:11.857Z,1.55
2023-03-29T18:18:38.630Z,2.10
2023-03-29T18:21:06.913Z,1.55
2023-03-29T18:23:33.869Z,1.38
2023-03-29T18:26:03.988Z,1.42
2023-03-29T18:28:32.211Z,1.20
2023-03-29T18:30:58.809Z,1.65
2023-03-29T18:33:25.701Z,1.40
2023-03-29T18:35:52.443Z,1.00
2023-03-29T18:38:21.245Z,0.95
2023-03-29T18:40:48.978Z,1.02
2023-03-29T18:43:16.132Z,1.33
2023-03-29T18:45:43.343Z,1.00
2023-03-29T18:48:10.406Z,1.45
2023-03-29T18:50:37.537Z,1.42
2023-03-29T18:53:04.399Z,1.67
2023-03-29T18:55:31.101Z,1.40
2023-03-29T18:57:57.517Z,1.70
2023-03-29T19:00:24.296Z,1.65
2023-03-29T19:02:50.904Z,1.52
2023-03-29T19:05:17.616Z,1.50
2023-03-29T19:07:44.152Z,3.03
2023-03-29T19:10:12.017Z,2.47
2023-03-29T19:12:38.576Z,1.77
2023-03-29T19:15:05.716Z,1.92
2023-03-29T19:17:32.232Z,1.80
2023-03-29T19:19:58.926Z,1.50
2023-03-29T19:22:25.776Z,1.55
2023-03-29T19:24:52.257Z,1.42
2023-03-29T19:27:18.774Z,1.70
2023-03-29T19:29:46.098Z,1.20
2023-03-29T19:32:12.553Z,1.40
2023-03-29T19:34:39.020Z,3.38
2023-03-29T19:37:05.758Z,1.67
2023-03-29T19:39:32.677Z,2.50
2023-03-29T19:41:59.221Z,1.20
2023-03-29T19:44:25.716Z,1.27
2023-03-29T19:46:52.214Z,1.90
2023-03-29T19:49:18.803Z,1.70
2023-03-29T19:51:45.474Z,1.38
2023-03-29T19:54:17.281Z,1.83
2023-03-29T19:56:44.137Z,1.77
2023-03-29T19:59:17.653Z,1.92
2023-03-29T20:01:50.798Z,1.60
2023-03-29T20:04:22.645Z,1.80
2023-03-29T20:06:49.224Z,1.30
2023-03-29T20:09:16.195Z,2.08
2023-03-29T20:11:44.345Z,1.55
2023-03-29T20:14:11.628Z,1.85
2023-03-29T20:16:38.417Z,4.28
2023-03-29T20:19:06.942Z,2.53
2023-03-29T20:21:37.249Z,1.48
2023-03-29T20:24:04.769Z,1.85
2023-03-29T20:26:31.882Z,2.22
2023-03-29T20:28:58.289Z,2.03
2023-03-29T20:31:24.928Z,1.77
2023-03-29T20:33:51.520Z,1.73
2023-03-29T20:36:18.505Z,1.88
2023-03-29T20:38:45.504Z,1.65
2023-03-29T20:41:11.977Z,1.55
2023-03-29T20:43:38.466Z,2.13
2023-03-29T20:46:14.192Z,1.52
2023-03-29T20:48:45.922Z,1.60
2023-03-29T20:51:14.025Z,1.48
2023-03-29T20:53:42.806Z,1.35
2023-03-29T20:56:09.330Z,1.60
2023-03-29T20:58:35.762Z,1.35
2023-03-29T21:01:02.593Z,1.50
2023-03-29T21:03:29.387Z,2.00
2023-03-29T21:05:58.137Z,1.40
2023-03-29T21:08:28.435Z,1.58
2023-03-29T21:10:56.179Z,1.17
2023-03-29T21:13:23.360Z,2.58
2023-03-29T21:15:49.839Z,1.58
2023-03-29T21:18:16.680Z,2.13
2023-03-29T21:20:44.151Z,1.60
2023-03-29T21:23:10.631Z,2.22
2023-03-29T21:25:38.005Z,1.50
2023-03-29T21:28:04.486Z,1.65
2023-03-29T21:30:32.098Z,1.77
2023-03-29T21:32:58.870Z,1.90
2023-03-29T21:35:25.383Z,2.30
2023-03-29T21:37:52.572Z,1.95
2023-03-29T21:40:19.346Z,1.48
2023-03-29T21:42:45.774Z,1.98
2023-03-29T21:45:12.286Z,1.92
2023-03-29T21:47:38.769Z,2.05
2023-03-29T21:50:05.929Z,2.00
2023-03-29T21:52:32.390Z,1.50
2023-03-29T21:54:58.833Z,1.90
2023-03-29T21:57:25.559Z,1.40
2023-03-29T21:59:52.105Z,1.75
2023-03-29T22:02:18.592Z,2.03
2023-03-29T22:04:45.305Z,1.60
2023-03-29T22:07:12.413Z,1.42
2023-03-29T22:09:41.347Z,1.50
2023-03-29T22:12:09.912Z,2.55
2023-03-29T22:14:36.378Z,1.80
2023-03-29T22:17:07.819Z,1.65
2023-03-29T22:19:41.680Z,1.90
2023-03-29T22:22:13.119Z,1.50
2023-03-29T22:24:40.683Z,1.75
2023-03-29T22:27:07.188Z,1.88
2023-03-29T22:29:33.653Z,2.75
2023-03-29T22:32:00.159Z,2.15
2023-03-29T22:34:27.440Z,1.95
2023-03-29T22:36:53.900Z,1.92
2023-03-29T22:39:20.420Z,1.50
2023-03-29T22:41:46.856Z,2.20
2023-03-29T22:44:13.400Z,1.60
2023-03-29T22:46:39.883Z,1.98
2023-03-29T22:49:06.424Z,1.70
2023-03-29T22:51:32.861Z,1.40
2023-03-29T22:53:59.345Z,1.60
2023-03-29T22:56:27.096Z,2.25
2023-03-29T22:58:53.525Z,1.80
2023-03-29T23:01:19.986Z,1.90
2023-03-29T23:03:46.473Z,1.63
2023-03-29T23:06:12.904Z,1.60
2023-03-29T23:08:39.443Z,1.40
2023-03-29T23:11:07.245Z,1.52
2023-03-29T23:13:35.092Z,2.08
2023-03-29T23:16:03.406Z,1.70
2023-03-29T23:18:31.744Z,2.08
2023-03-29T23:20:58.937Z,1.58
2023-03-29T23:23:26.902Z,1.73
2023-03-29T23:25:55.375Z,1.65
2023-03-29T23:28:24.851Z,1.40
2023-03-29T23:30:56.989Z,2.85
2023-03-29T23:33:25.658Z,3.22
2023-03-29T23:35:53.133Z,2.50
2023-03-29T23:38:19.662Z,2.10
2023-03-29T23:40:53.523Z,2.22
2023-03-29T23:43:19.960Z,1.88
2023-03-29T23:45:47.087Z,2.03
2023-03-29T23:48:13.948Z,1.40
2023-03-29T23:50:40.350Z,1.70
2023-03-29T23:53:06.852Z,2.25
2023-03-29T23:55:33.337Z,1.98
2023-03-29T23:57:59.787Z,1.88
